Time;durP1;ratioP1;P1;durP2;ratioP2;P2;SDS_P1;SDS_P2;PMS_P1;PMS_P2;Temp;Humidity;BMP_temperature;BMP_pressure;BME280_temperature;BME280_humidity;BME280_pressure;Samples;Min_cycle;Max_cycle;Signal;HPM_P1;HPM_P2
2023/11/28 00:01:18;;;;;;;50.50;32.60;;;;;;;0.62;79.95;98635.14;104422;1254;106746;-67
2023/11/28 00:03:46;;;;;;;50.60;31.50;;;;;;;0.62;79.96;98635.14;104387;1254;95965;-68
2023/11/28 00:06:18;;;;;;;46.70;30.70;;;;;;;0.64;79.99;98636.83;103542;1253;1003032;-67
2023/11/28 00:08:46;;;;;;;49.70;32.20;;;;;;;0.69;79.84;98638.09;102351;1253;1002701;-67
2023/11/28 00:11:19;;;;;;;50.40;33.40;;;;;;;0.73;79.83;98639.23;103615;1254;1002413;-67
2023/11/28 00:13:46;;;;;;;50.50;34.30;;;;;;;0.76;79.72;98636.77;103659;1255;107623;-66
2023/11/28 00:16:13;;;;;;;53.60;35.10;;;;;;;0.79;79.67;98643.04;104072;1257;97611;-67
2023/11/28 00:18:40;;;;;;;54.70;34.80;;;;;;;0.80;79.50;98639.27;104344;1254;137640;-68
2023/11/28 00:21:08;;;;;;;55.30;36.10;;;;;;;0.80;79.32;98645.58;103285;1256;107161;-67
2023/11/28 00:23:35;;;;;;;53.10;34.70;;;;;;;0.81;79.34;98647.79;102962;1255;137821;-67
2023/11/28 00:26:02;;;;;;;51.90;34.10;;;;;;;0.82;79.22;98643.50;102986;1259;108093;-66
2023/11/28 00:28:29;;;;;;;51.50;34.30;;;;;;;0.83;79.37;98646.20;103059;1256;98169;-66
2023/11/28 00:30:56;;;;;;;52.30;33.00;;;;;;;0.83;79.18;98645.00;103033;1255;114466;-66
2023/11/28 00:33:23;;;;;;;51.50;34.50;;;;;;;0.81;79.19;98642.32;102973;1254;108128;-67
2023/11/28 00:35:50;;;;;;;50.40;32.90;;;;;;;0.77;79.02;98641.02;103158;1253;139101;-67
2023/11/28 00:38:16;;;;;;;50.20;32.80;;;;;;;0.72;79.05;98638.89;102533;1258;1003137;-67
2023/11/28 00:40:46;;;;;;;45.00;30.50;;;;;;;0.68;78.93;98637.41;104171;1254;138969;-66
2023/11/28 00:43:15;;;;;;;48.50;30.50;;;;;;;0.67;79.17;98640.18;104340;1253;111362;-67
2023/11/28 00:45:42;;;;;;;50.90;32.20;;;;;;;0.71;79.26;98642.66;104343;1254;108069;-67
2023/11/28 00:48:09;;;;;;;50.40;33.10;;;;;;;0.71;79.18;98638.56;104256;1255;137573;-67
2023/11/28 00:50:36;;;;;;;55.90;34.40;;;;;;;0.75;79.08;98633.03;104088;1257;106244;-66
2023/11/28 00:53:03;;;;;;;53.70;34.30;;;;;;;0.79;78.90;98631.59;103722;1254;137987;-66
2023/11/28 00:55:30;;;;;;;50.50;33.70;;;;;;;0.78;78.69;98625.11;102928;1253;112312;-68
2023/11/28 00:57:58;;;;;;;52.90;35.20;;;;;;;0.74;78.59;98623.30;102872;1259;108928;-65
2023/11/28 01:00:25;;;;;;;49.70;33.50;;;;;;;0.71;78.68;98613.59;102776;1254;137862;-66
2023/11/28 01:02:52;;;;;;;53.00;34.20;;;;;;;0.72;78.69;98620.41;103042;1257;107765;-66
2023/11/28 01:05:20;;;;;;;55.90;34.70;;;;;;;0.67;78.55;98613.67;103712;1253;137655;-67
2023/11/28 01:07:47;;;;;;;51.00;34.50;;;;;;;0.60;78.51;98613.63;103674;1253;1002476;-66
2023/11/28 01:10:15;;;;;;;56.40;34.10;;;;;;;0.58;78.76;98609.56;104396;1253;106855;-67
2023/11/28 01:12:42;;;;;;;50.30;32.90;;;;;;;0.57;78.84;98605.14;102890;1253;1003072;-67
2023/11/28 01:15:10;;;;;;;47.30;31.10;;;;;;;0.54;78.60;98606.20;103069;1253;107495;-67
2023/11/28 01:17:37;;;;;;;48.50;30.50;;;;;;;0.50;78.49;98604.91;102294;1257;1002847;-66
2023/11/28 01:20:05;;;;;;;53.70;33.00;;;;;;;0.46;78.55;98600.52;102964;1255;111803;-66
2023/11/28 01:22:33;;;;;;;51.40;33.20;;;;;;;0.49;78.80;98594.33;104232;1257;106645;-67
2023/11/28 01:25:00;;;;;;;49.70;34.30;;;;;;;0.54;78.80;98592.36;103320;1255;97721;-66
2023/11/28 01:27:27;;;;;;;48.70;33.30;;;;;;;0.53;78.76;98588.63;104408;1257;108710;-67
2023/11/28 01:29:54;;;;;;;48.90;33.80;;;;;;;0.55;78.55;98592.69;103160;1258;138559;-67
2023/11/28 01:32:21;;;;;;;53.20;35.60;;;;;;;0.54;78.55;98587.23;103013;1254;110621;-67
2023/11/28 01:34:49;;;;;;;54.50;34.50;;;;;;;0.53;78.40;98583.98;103432;1254;137925;-66
2023/11/28 01:37:17;;;;;;;51.70;34.60;;;;;;;0.51;78.47;98581.98;102570;1255;1015668;-64
2023/11/28 01:39:44;;;;;;;53.10;34.90;;;;;;;0.48;78.35;98577.23;102989;1256;108509;-66
2023/11/28 01:42:12;;;;;;;52.80;32.50;;;;;;;0.41;78.19;98577.73;102911;1253;137865;-67
2023/11/28 01:44:39;;;;;;;48.10;32.20;;;;;;;0.35;78.32;98578.83;103001;1255;111793;-66
2023/11/28 01:47:06;;;;;;;50.80;32.70;;;;;;;0.35;78.47;98573.02;102884;1255;138494;-66
2023/11/28 01:49:34;;;;;;;48.70;30.80;;;;;;;0.36;78.45;98569.27;103247;1254;1003365;-67
2023/11/28 01:52:03;;;;;;;51.90;34.40;;;;;;;0.41;78.62;98569.00;103773;1255;110533;-68
2023/11/28 01:54:30;;;;;;;53.10;34.40;;;;;;;0.45;78.52;98569.59;103187;1253;138053;-66
2023/11/28 01:56:57;;;;;;;52.20;34.20;;;;;;;0.46;78.21;98573.18;103089;1257;111113;-66
2023/11/28 01:59:25;;;;;;;55.40;36.30;;;;;;;0.46;78.21;98575.92;104211;1253;137602;-67
2023/11/28 02:01:52;;;;;;;53.10;35.60;;;;;;;0.48;78.35;98575.71;102878;1259;1002792;-67
2023/11/28 02:04:19;;;;;;;53.50;36.30;;;;;;;0.51;78.36;98577.52;102983;1258;108447;-67
2023/11/28 02:06:48;;;;;;;56.00;35.50;;;;;;;0.55;78.39;98578.50;102161;1254;1003555;-67
2023/11/28 02:09:15;;;;;;;53.50;35.60;;;;;;;0.58;78.39;98569.89;102212;1255;1003591;-67
2023/11/28 02:11:42;;;;;;;55.00;35.50;;;;;;;0.57;78.22;98569.23;102785;1259;138565;-67
2023/11/28 02:14:10;;;;;;;52.30;35.90;;;;;;;0.56;78.36;98570.77;102197;1253;1003085;-66
2023/11/28 02:16:37;;;;;;;53.10;34.30;;;;;;;0.55;78.45;98566.68;102901;1258;138377;-66
2023/11/28 02:19:04;;;;;;;57.40;35.20;;;;;;;0.53;78.46;98560.90;102827;1257;97960;-66
2023/11/28 02:21:31;;;;;;;50.40;32.30;;;;;;;0.50;78.22;98565.23;102241;1254;1003547;-67
2023/11/28 02:23:59;;;;;;;50.50;32.70;;;;;;;0.47;78.15;98558.29;102933;1256;138663;-66
2023/11/28 02:26:27;;;;;;;53.30;34.50;;;;;;;0.46;78.15;98550.08;103083;1253;97797;-67
2023/11/28 02:28:55;;;;;;;55.80;35.90;;;;;;;0.45;78.04;98548.05;104216;1255;139739;-65
2023/11/28 02:31:24;;;;;;;55.10;36.20;;;;;;;0.44;77.94;98547.75;104501;1255;96213;-67
2023/11/28 02:33:51;;;;;;;58.20;36.50;;;;;;;0.40;78.08;98550.55;103226;1256;111395;-67
2023/11/28 02:36:20;;;;;;;58.80;38.70;;;;;;;0.36;78.20;98549.61;104305;1256;138386;-67
2023/11/28 02:38:46;;;;;;;59.30;39.50;;;;;;;0.31;78.21;98545.91;104468;1253;96871;-67
2023/11/28 02:41:14;;;;;;;58.80;38.20;;;;;;;0.30;78.36;98545.77;103126;1256;137683;-66
2023/11/28 02:43:40;;;;;;;59.20;37.90;;;;;;;0.26;78.43;98545.16;102224;1259;1002943;-66
2023/11/28 02:46:08;;;;;;;59.50;37.50;;;;;;;0.23;78.68;98542.82;103047;1257;111862;-66
2023/11/28 02:48:35;;;;;;;57.60;35.20;;;;;;;0.20;78.82;98536.23;102933;1253;139547;-65
2023/11/28 02:51:02;;;;;;;54.40;34.80;;;;;;;0.22;78.86;98540.46;102978;1256;97912;-66
2023/11/28 02:53:29;;;;;;;52.10;33.50;;;;;;;0.23;78.90;98540.60;102858;1257;138729;-66
2023/11/28 02:55:56;;;;;;;51.10;33.70;;;;;;;0.27;79.02;98538.14;102192;1255;1002968;-66
2023/11/28 02:58:22;;;;;;;55.70;36.50;;;;;;;0.29;79.05;98532.63;103090;1257;111310;-67
2023/11/28 03:00:50;;;;;;;54.00;35.50;;;;;;;0.34;78.98;98525.52;102762;1257;138224;-66
2023/11/28 03:03:17;;;;;;;59.70;38.00;;;;;;;0.32;78.86;98519.41;103003;1253;97796;-65
2023/11/28 03:05:44;;;;;;;57.80;37.90;;;;;;;0.27;78.68;98523.62;103583;1253;138292;-66
2023/11/28 03:08:12;;;;;;;64.00;41.00;;;;;;;0.18;78.69;98524.98;102264;1256;1003407;-66
2023/11/28 03:10:39;;;;;;;62.80;41.50;;;;;;;0.10;78.65;98524.60;102873;1258;140821;-66
2023/11/28 03:13:05;;;;;;;66.40;42.90;;;;;;;0.02;78.73;98514.32;102939;1259;107577;-66
2023/11/28 03:15:32;;;;;;;65.50;39.40;;;;;;;-0.01;79.16;98509.74;101523;1259;1002970;-67
2023/11/28 03:17:59;;;;;;;58.50;36.30;;;;;;;-0.06;79.19;98507.09;102117;1253;1002953;-66
2023/11/28 03:20:26;;;;;;;59.90;36.50;;;;;;;-0.08;79.31;98506.98;102092;1259;1003532;-66
2023/11/28 03:22:53;;;;;;;58.00;36.70;;;;;;;-0.13;79.31;98506.04;102780;1255;139523;-67
2023/11/28 03:25:20;;;;;;;56.90;36.50;;;;;;;-0.16;79.33;98505.93;102904;1259;109344;-66
2023/11/28 03:27:48;;;;;;;60.50;38.30;;;;;;;-0.16;79.47;98499.27;103687;1254;97887;-67
2023/11/28 03:30:16;;;;;;;55.80;37.60;;;;;;;-0.15;79.47;98496.52;102923;1254;137695;-66
2023/11/28 03:32:43;;;;;;;58.40;37.90;;;;;;;-0.13;79.72;98495.63;103265;1256;97829;-67
2023/11/28 03:35:10;;;;;;;60.10;38.40;;;;;;;-0.12;79.72;98493.55;102876;1259;137999;-68
2023/11/28 03:37:37;;;;;;;59.50;37.10;;;;;;;-0.11;79.71;98491.33;103009;1254;107813;-67
2023/11/28 03:40:06;;;;;;;58.30;38.00;;;;;;;-0.12;79.80;98486.90;102264;1253;1003364;-66
2023/11/28 03:42:33;;;;;;;57.60;37.90;;;;;;;-0.13;79.81;98485.54;103169;1259;138729;-66
2023/11/28 03:45:00;;;;;;;58.70;37.60;;;;;;;-0.15;79.84;98490.86;103078;1259;98132;-66
2023/11/28 03:47:26;;;;;;;56.40;35.70;;;;;;;-0.18;79.75;98494.16;102120;1253;1003087;-66
2023/11/28 03:49:56;;;;;;;57.20;34.80;;;;;;;-0.20;79.89;98490.26;102982;1254;107959;-66
2023/11/28 03:52:23;;;;;;;55.50;34.30;;;;;;;-0.20;80.06;98486.48;103036;1256;98320;-68
2023/11/28 03:54:50;;;;;;;53.20;33.70;;;;;;;-0.18;80.20;98478.95;102283;1259;1002739;-67
2023/11/28 03:57:17;;;;;;;61.80;37.10;;;;;;;-0.14;80.24;98474.80;102974;1256;97791;-67
2023/11/28 03:59:44;;;;;;;54.40;35.40;;;;;;;-0.11;80.15;98474.08;103634;1253;138652;-66
2023/11/28 04:02:11;;;;;;;56.60;36.40;;;;;;;-0.07;80.20;98471.58;104412;1253;107451;-67
2023/11/28 04:04:38;;;;;;;55.50;36.30;;;;;;;-0.03;80.41;98463.98;104323;1253;138316;-67
2023/11/28 04:07:06;;;;;;;55.40;37.60;;;;;;;0.02;80.26;98461.02;104310;1256;108695;-67
2023/11/28 04:09:33;;;;;;;57.90;38.10;;;;;;;0.07;80.40;98459.55;103286;1253;97797;-66
2023/11/28 04:12:00;;;;;;;56.30;37.60;;;;;;;0.07;80.22;98457.66;102848;1256;137995;-66
2023/11/28 04:14:27;;;;;;;59.30;37.60;;;;;;;0.11;80.23;98457.77;102993;1258;108036;-66
2023/11/28 04:16:55;;;;;;;61.20;36.90;;;;;;;0.12;80.30;98456.55;102769;1254;137847;-65
2023/11/28 04:19:22;;;;;;;55.30;34.30;;;;;;;0.11;80.30;98457.42;104472;1254;108106;-66
2023/11/28 04:21:50;;;;;;;57.40;35.00;;;;;;;0.13;80.40;98457.73;102500;1258;1003332;-66
2023/11/28 04:24:17;;;;;;;59.00;36.50;;;;;;;0.14;80.37;98457.88;102885;1253;139184;-66
2023/11/28 04:26:45;;;;;;;55.40;35.60;;;;;;;0.15;80.33;98450.14;102889;1257;106897;-66
2023/11/28 04:29:12;;;;;;;59.90;37.30;;;;;;;0.17;80.38;98448.92;102886;1259;138124;-65
2023/11/28 04:31:39;;;;;;;55.20;36.70;;;;;;;0.17;80.45;98449.27;103230;1257;1003043;-65
2023/11/28 04:34:07;;;;;;;54.30;37.20;;;;;;;0.21;80.32;98454.67;102970;1253;97850;-66
2023/11/28 04:36:34;;;;;;;54.70;37.30;;;;;;;0.20;80.14;98451.98;103120;1253;138001;-66
2023/11/28 04:39:01;;;;;;;54.30;35.80;;;;;;;0.17;79.98;98448.92;103168;1256;107503;-65
2023/11/28 04:41:29;;;;;;;54.60;37.00;;;;;;;0.12;79.83;98446.61;103287;1253;137610;-66
2023/11/28 04:43:56;;;;;;;54.00;35.10;;;;;;;0.08;79.74;98446.22;103312;1253;108636;-66
2023/11/28 04:46:23;;;;;;;53.30;34.00;;;;;;;0.03;79.91;98445.95;103253;1254;97672;-66
2023/11/28 04:48:50;;;;;;;51.50;33.40;;;;;;;-0.02;79.85;98442.60;102492;1253;1003219;-67
2023/11/28 04:51:17;;;;;;;47.80;31.00;;;;;;;-0.06;79.75;98437.23;103201;1259;108227;-67
2023/11/28 04:53:44;;;;;;;48.30;30.10;;;;;;;-0.10;79.78;98436.13;103143;1253;138695;-66
2023/11/28 04:56:12;;;;;;;50.00;32.50;;;;;;;-0.11;79.82;98435.27;103302;1259;107734;-67
2023/11/28 04:58:41;;;;;;;48.90;32.40;;;;;;;-0.10;79.88;98429.63;103625;1253;138419;-68
2023/11/28 05:01:09;;;;;;;50.40;33.50;;;;;;;-0.10;79.98;98420.73;103224;1259;111194;-66
2023/11/28 05:03:36;;;;;;;50.70;32.40;;;;;;;-0.11;80.04;98418.88;103462;1254;106402;-66
2023/11/28 05:06:03;;;;;;;52.70;33.70;;;;;;;-0.10;80.16;98418.69;103253;1259;137832;-68
2023/11/28 05:08:30;;;;;;;56.10;35.40;;;;;;;-0.09;79.97;98416.61;101720;1253;1003632;-66
2023/11/28 05:10:57;;;;;;;54.70;36.20;;;;;;;-0.13;79.69;98413.13;103078;1259;138148;-66
2023/11/28 05:13:24;;;;;;;60.70;36.40;;;;;;;-0.22;79.58;98411.38;103265;1257;111019;-66
2023/11/28 05:15:51;;;;;;;55.10;36.20;;;;;;;-0.30;79.53;98406.09;103360;1253;107421;-66
2023/11/28 05:18:18;;;;;;;55.40;35.00;;;;;;;-0.38;79.59;98405.02;103215;1253;138569;-66
2023/11/28 05:20:45;;;;;;;60.60;36.80;;;;;;;-0.45;79.56;98411.30;103393;1253;108019;-65
2023/11/28 05:23:12;;;;;;;55.90;34.60;;;;;;;-0.51;79.74;98417.05;102357;1254;1003078;-66
2023/11/28 05:25:39;;;;;;;57.10;35.10;;;;;;;-0.57;79.77;98413.88;103386;1254;112163;-67
2023/11/28 05:28:06;;;;;;;59.00;34.20;;;;;;;-0.64;79.92;98413.65;102602;1254;1003762;-67
2023/11/28 05:30:33;;;;;;;53.70;33.80;;;;;;;-0.69;80.02;98412.90;103272;1256;139447;-65
2023/11/28 05:33:00;;;;;;;56.20;35.80;;;;;;;-0.71;80.02;98414.98;102666;1257;1002934;-67
2023/11/28 05:35:27;;;;;;;59.50;37.20;;;;;;;-0.71;80.24;98411.74;103073;1253;138948;-67
2023/11/28 05:37:55;;;;;;;57.30;36.00;;;;;;;-0.74;80.31;98409.20;102147;1253;1002599;-66
2023/11/28 05:40:22;;;;;;;62.40;38.40;;;;;;;-0.77;80.38;98410.44;103108;1254;107952;-67
2023/11/28 05:42:49;;;;;;;61.60;38.80;;;;;;;-0.79;80.34;98407.58;103223;1254;140264;-66
2023/11/28 05:45:16;;;;;;;63.10;38.80;;;;;;;-0.82;80.39;98404.39;102647;1257;1003389;-68
2023/11/28 05:47:43;;;;;;;65.00;40.30;;;;;;;-0.89;80.28;98404.16;103236;1254;138204;-66
2023/11/28 05:50:11;;;;;;;61.30;37.50;;;;;;;-1.00;80.32;98409.11;103254;1254;111871;-66
2023/11/28 05:52:38;;;;;;;59.70;37.50;;;;;;;-1.11;80.51;98410.13;103195;1259;139074;-66
2023/11/28 05:55:07;;;;;;;58.40;35.50;;;;;;;-1.18;80.48;98409.39;103277;1259;98371;-65
2023/11/28 05:57:34;;;;;;;57.10;35.90;;;;;;;-1.25;80.87;98407.95;104484;1257;107447;-66
2023/11/28 06:00:01;;;;;;;57.80;35.30;;;;;;;-1.29;80.64;98411.23;103217;1254;139441;-65
2023/11/28 06:02:29;;;;;;;55.50;35.50;;;;;;;-1.34;80.86;98411.83;103330;1253;111818;-65
2023/11/28 06:04:56;;;;;;;57.70;37.00;;;;;;;-1.34;80.85;98414.38;103128;1260;138644;-66
2023/11/28 06:07:23;;;;;;;60.10;37.30;;;;;;;-1.34;81.03;98410.11;102552;1259;1003457;-66
2023/11/28 06:09:51;;;;;;;61.90;38.20;;;;;;;-1.33;81.14;98415.05;102536;1257;1003202;-67
2023/11/28 06:12:18;;;;;;;61.00;36.80;;;;;;;-1.38;80.85;98417.16;102405;1259;1002788;-65
2023/11/28 06:14:44;;;;;;;56.00;35.50;;;;;;;-1.39;80.96;98424.85;103202;1254;111219;-63
2023/11/28 06:17:13;;;;;;;62.50;37.80;;;;;;;-1.43;80.79;98427.13;103652;1259;138518;-65
2023/11/28 06:19:40;;;;;;;58.00;35.10;;;;;;;-1.48;81.10;98423.09;103254;1259;97683;-66
2023/11/28 06:22:08;;;;;;;55.60;32.40;;;;;;;-1.53;80.95;98424.19;103147;1257;108378;-66
2023/11/28 06:24:37;;;;;;;53.30;33.10;;;;;;;-1.57;80.97;98420.67;102437;1254;1003715;-66
2023/11/28 06:27:05;;;;;;;57.50;33.40;;;;;;;-1.58;81.02;98419.83;103789;1259;111572;-67
2023/11/28 06:29:32;;;;;;;58.00;34.50;;;;;;;-1.55;81.04;98422.17;102511;1253;1003051;-66
2023/11/28 06:31:59;;;;;;;68.50;39.80;;;;;;;-1.53;81.25;98417.70;103397;1254;97788;-66
2023/11/28 06:34:26;;;;;;;64.20;36.90;;;;;;;-1.50;81.13;98414.94;102619;1258;1003138;-66
2023/11/28 06:36:53;;;;;;;61.90;38.20;;;;;;;-1.51;81.09;98416.65;103092;1257;139158;-67
2023/11/28 06:39:23;;;;;;;58.30;36.40;;;;;;;-1.50;80.82;98421.92;102588;1256;1003719;-67
2023/11/28 06:41:50;;;;;;;62.10;38.00;;;;;;;-1.51;81.04;98425.35;102410;1259;1002891;-67
2023/11/28 06:44:18;;;;;;;60.10;36.70;;;;;;;-1.52;80.90;98423.48;102596;1254;1003049;-67
2023/11/28 06:46:47;;;;;;;57.10;35.40;;;;;;;-1.54;80.81;98424.36;103162;1257;138263;-69
2023/11/28 06:49:14;;;;;;;56.50;35.00;;;;;;;-1.56;80.94;98424.38;103955;1253;97835;-66
2023/11/28 06:51:41;;;;;;;57.30;34.90;;;;;;;-1.57;80.98;98424.25;103330;1254;111533;-65
2023/11/28 06:54:09;;;;;;;60.20;35.30;;;;;;;-1.59;80.92;98428.02;103269;1254;138874;-69
2023/11/28 06:56:36;;;;;;;57.00;34.80;;;;;;;-1.59;81.15;98427.85;103343;1254;98350;-67
2023/11/28 06:59:03;;;;;;;57.90;34.70;;;;;;;-1.59;81.11;98423.09;103250;1254;139421;-67
2023/11/28 07:01:30;;;;;;;57.30;35.10;;;;;;;-1.58;81.33;98425.28;103319;1259;98244;-66
2023/11/28 07:03:57;;;;;;;62.70;36.30;;;;;;;-1.57;81.34;98429.02;103220;1259;111054;-66
2023/11/28 07:06:24;;;;;;;60.00;36.50;;;;;;;-1.59;81.13;98429.71;104536;1258;138971;-68
2023/11/28 07:08:51;;;;;;;54.40;33.70;;;;;;;-1.57;81.30;98429.02;103994;1253;98833;-67
2023/11/28 07:11:21;;;;;;;56.80;31.80;;;;;;;-1.56;80.99;98435.65;103210;1257;138380;-68
2023/11/28 07:13:48;;;;;;;56.30;32.80;;;;;;;-1.57;80.75;98440.10;103375;1259;97685;-67
2023/11/28 07:16:15;;;;;;;53.40;32.80;;;;;;;-1.59;80.69;98438.08;103376;1254;111702;-67
2023/11/28 07:18:42;;;;;;;52.30;33.20;;;;;;;-1.62;80.43;98434.70;102981;1256;346392;-67
2023/11/28 07:21:10;;;;;;;52.00;32.10;;;;;;;-1.62;80.70;98436.23;103320;1258;98163;-68
2023/11/28 07:23:38;;;;;;;53.10;32.90;;;;;;;-1.64;80.55;98437.42;103379;1254;137833;-67
2023/11/28 07:26:06;;;;;;;53.90;33.60;;;;;;;-1.67;80.46;98437.30;102603;1255;1002908;-66
2023/11/28 07:28:33;;;;;;;54.40;31.00;;;;;;;-1.65;80.61;98439.48;101975;1255;1003312;-66
2023/11/28 07:31:00;;;;;;;53.60;34.30;;;;;;;-1.61;80.73;98438.09;103265;1254;107911;-66
2023/11/28 07:33:27;;;;;;;52.30;31.80;;;;;;;-1.56;80.94;98436.50;103368;1255;98566;-68
2023/11/28 07:35:55;;;;;;;46.90;28.80;;;;;;;-1.49;80.78;98437.59;103232;1259;138966;-69
2023/11/28 07:38:24;;;;;;;52.70;30.80;;;;;;;-1.42;80.67;98440.58;103365;1259;98024;-68
2023/11/28 07:40:51;;;;;;;49.90;29.90;;;;;;;-1.34;80.59;98441.84;103172;1257;138833;-69
2023/11/28 07:43:18;;;;;;;55.50;32.00;;;;;;;-1.26;80.47;98445.48;103362;1256;108616;-69
2023/11/28 07:45:45;;;;;;;51.60;32.40;;;;;;;-1.17;80.13;98448.77;102623;1256;1002947;-67
2023/11/28 07:48:13;;;;;;;57.80;33.10;;;;;;;-1.08;80.24;98451.55;103095;1257;1002910;-68
2023/11/28 07:50:40;;;;;;;56.50;33.20;;;;;;;-1.02;79.79;98457.59;102753;1257;1015382;-68
2023/11/28 07:53:08;;;;;;;53.50;32.40;;;;;;;-0.99;79.68;98460.95;102682;1259;1003169;-67
2023/11/28 07:55:35;;;;;;;52.10;34.20;;;;;;;-0.93;79.30;98464.77;103206;1258;108141;-68
2023/11/28 07:58:02;;;;;;;55.60;35.10;;;;;;;-0.96;78.87;98459.89;103464;1257;99458;-69
2023/11/28 08:00:33;;;;;;;56.40;33.90;;;;;;;-0.98;78.84;98459.06;102453;1259;1002632;-68
2023/11/28 08:03:02;;;;;;;55.60;35.20;;;;;;;-0.96;79.05;98460.05;102591;1260;1002697;-67
2023/11/28 08:05:30;;;;;;;59.50;34.00;;;;;;;-1.00;78.83;98457.05;103308;1259;138005;-70
2023/11/28 08:07:57;;;;;;;51.00;31.50;;;;;;;-1.02;78.85;98458.45;102543;1259;1003662;-68
2023/11/28 08:10:24;;;;;;;48.10;30.50;;;;;;;-1.00;78.79;98457.73;102579;1260;1003271;-69
2023/11/28 08:12:51;;;;;;;49.40;30.00;;;;;;;-0.97;78.69;98458.36;103259;1257;141733;-68
2023/11/28 08:15:18;;;;;;;51.30;32.70;;;;;;;-0.88;78.89;98461.14;103311;1257;97805;-68
2023/11/28 08:17:45;;;;;;;51.50;34.70;;;;;;;-0.78;78.70;98462.52;102525;1259;1016102;-68
2023/11/28 08:20:14;;;;;;;60.80;37.40;;;;;;;-0.71;78.50;98467.36;103262;1254;110482;-69
2023/11/28 08:22:41;;;;;;;57.20;35.10;;;;;;;-0.66;78.37;98464.38;102529;1254;1003437;-69
2023/11/28 08:25:09;;;;;;;54.90;35.10;;;;;;;-0.58;78.34;98460.50;101835;1258;1002958;-68
2023/11/28 08:27:36;;;;;;;56.30;34.90;;;;;;;-0.51;78.30;98460.73;103313;1259;97789;-68
2023/11/28 08:30:04;;;;;;;58.80;34.90;;;;;;;-0.48;77.83;98454.71;103550;1259;137719;-68
2023/11/28 08:32:31;;;;;;;56.90;36.80;;;;;;;-0.48;77.53;98449.77;103559;1254;107260;-68
2023/11/28 08:34:59;;;;;;;59.90;36.50;;;;;;;-0.50;77.48;98446.05;102460;1257;1003745;-68
2023/11/28 08:37:26;;;;;;;57.20;36.20;;;;;;;-0.52;77.39;98447.96;103360;1257;107923;-68
2023/11/28 08:39:53;;;;;;;57.20;35.40;;;;;;;-0.52;77.33;98447.11;103307;1259;97889;-68
2023/11/28 08:42:20;;;;;;;57.10;35.40;;;;;;;-0.51;77.43;98448.13;103222;1254;140255;-67
2023/11/28 08:44:47;;;;;;;56.50;34.90;;;;;;;-0.54;77.22;98448.14;103369;1259;107718;-68
2023/11/28 08:47:14;;;;;;;53.00;33.40;;;;;;;-0.53;77.28;98447.13;103207;1258;138795;-67
2023/11/28 08:49:45;;;;;;;55.60;33.10;;;;;;;-0.50;77.45;98446.55;103517;1259;107759;-68
2023/11/28 08:52:12;;;;;;;53.40;32.90;;;;;;;-0.42;77.65;98441.10;103281;1259;98438;-68
2023/11/28 08:54:43;;;;;;;57.30;34.40;;;;;;;-0.31;77.56;98439.23;103455;1257;138303;-68
2023/11/28 08:57:13;;;;;;;55.30;34.20;;;;;;;-0.22;77.24;98431.36;103356;1254;107667;-68
2023/11/28 08:59:42;;;;;;;54.40;34.00;;;;;;;-0.13;76.99;98431.73;103164;1259;138574;-69
2023/11/28 09:02:09;;;;;;;54.50;34.80;;;;;;;-0.08;77.09;98430.42;103302;1254;106935;-69
2023/11/28 09:04:37;;;;;;;64.40;38.20;;;;;;;-0.03;76.77;98435.63;103307;1254;98373;-68
2023/11/28 09:07:04;;;;;;;77.30;48.90;;;;;;;-0.02;76.48;98429.79;103217;1254;112122;-69
2023/11/28 09:09:31;;;;;;;56.60;36.00;;;;;;;0.02;76.42;98428.54;103380;1259;107876;-68
2023/11/28 09:11:58;;;;;;;55.60;35.20;;;;;;;0.03;76.14;98428.20;101765;1256;1003121;-68
2023/11/28 09:14:25;;;;;;;56.30;35.70;;;;;;;0.02;75.93;98426.50;103308;1257;107748;-68
2023/11/28 09:16:52;;;;;;;58.70;36.60;;;;;;;-0.03;75.68;98426.23;103233;1254;139914;-68
2023/11/28 09:19:19;;;;;;;59.00;36.50;;;;;;;-0.07;75.68;98427.69;103004;1258;1003465;-68
2023/11/28 09:21:46;;;;;;;56.70;37.00;;;;;;;-0.13;75.36;98425.08;103274;1258;107872;-68
2023/11/28 09:24:13;;;;;;;59.90;34.40;;;;;;;-0.22;75.52;98420.77;102493;1258;1003138;-68
2023/11/28 09:26:40;;;;;;;58.10;35.20;;;;;;;-0.24;75.59;98413.31;102562;1257;1003838;-68
2023/11/28 09:29:07;;;;;;;55.60;34.60;;;;;;;-0.26;75.60;98411.80;103191;1257;138905;-68
2023/11/28 09:31:36;;;;;;;53.40;33.10;;;;;;;-0.29;75.57;98411.86;103370;1254;111242;-68
2023/11/28 09:34:03;;;;;;;49.30;31.40;;;;;;;-0.28;75.76;98411.33;103222;1258;108721;-69
2023/11/28 09:36:30;;;;;;;53.80;34.20;;;;;;;-0.23;75.76;98410.39;102541;1254;1003811;-69
2023/11/28 09:39:03;;;;;;;54.90;35.40;;;;;;;-0.18;75.78;98407.05;102572;1254;1002934;-68
2023/11/28 09:41:32;;;;;;;56.70;36.80;;;;;;;-0.10;75.82;98409.29;103279;1254;138408;-69
2023/11/28 09:44:16;;;;;;;61.20;36.60;;;;;;;-0.07;75.50;98405.80;102630;1257;1003723;-69
2023/11/28 09:46:48;;;;;;;61.40;37.10;;;;;;;-0.04;75.55;98397.04;103253;1254;138648;-69
2023/11/28 09:49:17;;;;;;;64.20;38.50;;;;;;;0.00;75.50;98390.31;102000;1260;1003064;-69
2023/11/28 09:51:46;;;;;;;64.10;38.50;;;;;;;0.03;75.39;98391.80;102628;1257;1003343;-69
2023/11/28 09:54:14;;;;;;;66.00;39.80;;;;;;;0.01;75.02;98390.81;103277;1254;138034;-69
2023/11/28 09:56:42;;;;;;;73.90;46.20;;;;;;;0.01;75.23;98389.95;103454;1254;111589;-69
2023/11/28 09:59:12;;;;;;;66.40;40.50;;;;;;;0.04;75.07;98387.34;103473;1254;137809;-68
2023/11/28 10:01:43;;;;;;;68.20;39.00;;;;;;;0.05;75.08;98384.58;103573;1258;97976;-69
2023/11/28 10:04:10;;;;;;;65.40;40.00;;;;;;;0.07;74.89;98383.69;101827;1254;1003564;-67
2023/11/28 10:06:39;;;;;;;62.90;39.10;;;;;;;0.08;74.73;98378.70;104383;1254;138699;-68
2023/11/28 10:09:09;;;;;;;60.30;35.90;;;;;;;0.08;74.71;98378.18;104752;1254;111555;-68
2023/11/28 10:11:38;;;;;;;62.70;36.20;;;;;;;0.14;74.72;98377.56;103796;1254;138367;-68
2023/11/28 10:14:06;;;;;;;60.70;35.10;;;;;;;0.23;74.55;98373.95;103367;1255;98406;-69
2023/11/28 10:16:46;;;;;;;64.40;37.90;;;;;;;0.39;74.75;98368.15;103346;1254;108480;-69
2023/11/28 10:19:13;;;;;;;67.30;38.90;;;;;;;0.57;74.79;98368.44;103406;1254;97784;-69
2023/11/28 10:21:41;;;;;;;66.70;40.40;;;;;;;0.77;74.67;98366.11;103396;1255;110894;-69
2023/11/28 10:24:09;;;;;;;64.60;39.80;;;;;;;0.96;74.29;98358.83;103204;1254;137678;-68
2023/11/28 10:26:37;;;;;;;67.80;39.90;;;;;;;1.08;73.73;98352.02;103575;1254;98053;-69
2023/11/28 10:29:06;;;;;;;62.90;39.50;;;;;;;1.23;73.76;98347.72;103241;1257;138942;-69
2023/11/28 10:31:37;;;;;;;63.80;37.70;;;;;;;1.37;73.33;98347.20;103371;1254;97817;-70
2023/11/28 10:34:08;;;;;;;60.30;37.60;;;;;;;1.44;72.79;98345.66;103837;1254;110660;-69
2023/11/28 10:36:38;;;;;;;61.70;38.70;;;;;;;1.49;72.34;98346.20;103266;1254;138252;-69
